sensor_id;sensor_type;location;lat;lon;timestamp;temperature;humidity
65371;DHT22;58485;59.934;30.352;2022-07-23T00:00:08;25.84;57.52
65371;DHT22;58485;59.934;30.352;2022-07-23T00:01:01;25.82;57.52
65371;DHT22;58485;59.934;30.352;2022-07-23T00:01:53;25.81;57.53
65371;DHT22;58485;59.934;30.352;2022-07-23T00:02:45;25.81;57.55
65371;DHT22;58485;59.934;30.352;2022-07-23T00:03:36;25.80;57.58
65371;DHT22;58485;59.934;30.352;2022-07-23T00:04:29;25.81;57.61
65371;DHT22;58485;59.934;30.352;2022-07-23T00:05:20;25.80;57.61
65371;DHT22;58485;59.934;30.352;2022-07-23T00:06:12;25.80;57.62
65371;DHT22;58485;59.934;30.352;2022-07-23T00:07:04;25.80;57.62
65371;DHT22;58485;59.934;30.352;2022-07-23T00:07:57;25.79;57.67
65371;DHT22;58485;59.934;30.352;2022-07-23T00:08:49;25.79;57.66
65371;DHT22;58485;59.934;30.352;2022-07-23T00:09:41;25.77;57.66
65371;DHT22;58485;59.934;30.352;2022-07-23T00:10:32;25.79;57.67
65371;DHT22;58485;59.934;30.352;2022-07-23T00:11:25;25.78;57.68
65371;DHT22;58485;59.934;30.352;2022-07-23T00:12:16;25.78;57.70
65371;DHT22;58485;59.934;30.352;2022-07-23T00:13:09;25.77;57.71
65371;DHT22;58485;59.934;30.352;2022-07-23T00:14:00;25.77;57.71
65371;DHT22;58485;59.934;30.352;2022-07-23T00:14:52;25.77;57.72
65371;DHT22;58485;59.934;30.352;2022-07-23T00:15:43;25.78;57.73
65371;DHT22;58485;59.934;30.352;2022-07-23T00:16:36;25.75;57.73
65371;DHT22;58485;59.934;30.352;2022-07-23T00:17:27;25.74;57.74
65371;DHT22;58485;59.934;30.352;2022-07-23T00:18:19;25.77;57.74
65371;DHT22;58485;59.934;30.352;2022-07-23T00:19:10;25.76;57.77
65371;DHT22;58485;59.934;30.352;2022-07-23T00:20:03;25.75;57.76
65371;DHT22;58485;59.934;30.352;2022-07-23T00:20:55;25.77;57.77
65371;DHT22;58485;59.934;30.352;2022-07-23T00:21:48;25.75;57.78
65371;DHT22;58485;59.934;30.352;2022-07-23T00:22:45;25.75;57.87
65371;DHT22;58485;59.934;30.352;2022-07-23T00:23:39;25.74;57.84
65371;DHT22;58485;59.934;30.352;2022-07-23T00:24:31;25.74;57.83
65371;DHT22;58485;59.934;30.352;2022-07-23T00:25:24;25.74;57.85
65371;DHT22;58485;59.934;30.352;2022-07-23T00:26:15;25.75;57.84
65371;DHT22;58485;59.934;30.352;2022-07-23T00:27:08;25.74;57.87
65371;DHT22;58485;59.934;30.352;2022-07-23T00:28:00;25.75;57.84
65371;DHT22;58485;59.934;30.352;2022-07-23T00:28:52;25.74;57.84
65371;DHT22;58485;59.934;30.352;2022-07-23T00:29:43;25.74;57.87
65371;DHT22;58485;59.934;30.352;2022-07-23T00:30:36;25.73;57.87
65371;DHT22;58485;59.934;30.352;2022-07-23T00:31:27;25.74;57.87
65371;DHT22;58485;59.934;30.352;2022-07-23T00:32:19;25.74;57.88
65371;DHT22;58485;59.934;30.352;2022-07-23T00:33:12;25.72;57.89
65371;DHT22;58485;59.934;30.352;2022-07-23T00:34:04;25.74;57.87
65371;DHT22;58485;59.934;30.352;2022-07-23T00:34:56;25.74;57.88
65371;DHT22;58485;59.934;30.352;2022-07-23T00:35:48;25.73;57.90
65371;DHT22;58485;59.934;30.352;2022-07-23T00:36:39;25.73;57.89
65371;DHT22;58485;59.934;30.352;2022-07-23T00:37:32;25.73;57.90
65371;DHT22;58485;59.934;30.352;2022-07-23T00:38:23;25.74;57.91
65371;DHT22;58485;59.934;30.352;2022-07-23T00:39:16;25.72;57.96
65371;DHT22;58485;59.934;30.352;2022-07-23T00:40:10;25.71;57.96
65371;DHT22;58485;59.934;30.352;2022-07-23T00:41:03;25.72;57.94
65371;DHT22;58485;59.934;30.352;2022-07-23T00:41:54;25.71;57.96
65371;DHT22;58485;59.934;30.352;2022-07-23T00:42:47;25.72;57.98
65371;DHT22;58485;59.934;30.352;2022-07-23T00:43:38;25.71;57.98
65371;DHT22;58485;59.934;30.352;2022-07-23T00:44:30;25.73;57.99
65371;DHT22;58485;59.934;30.352;2022-07-23T00:45:22;25.69;57.98
65371;DHT22;58485;59.934;30.352;2022-07-23T00:46:19;25.69;58.06
65371;DHT22;58485;59.934;30.352;2022-07-23T00:47:10;25.69;58.03
65371;DHT22;58485;59.934;30.352;2022-07-23T00:48:03;25.68;58.02
65371;DHT22;58485;59.934;30.352;2022-07-23T00:48:54;25.68;58.05
65371;DHT22;58485;59.934;30.352;2022-07-23T00:49:46;25.68;58.05
65371;DHT22;58485;59.934;30.352;2022-07-23T00:50:37;25.69;58.06
65371;DHT22;58485;59.934;30.352;2022-07-23T00:51:30;25.67;58.09
65371;DHT22;58485;59.934;30.352;2022-07-23T00:52:21;25.66;58.10
65371;DHT22;58485;59.934;30.352;2022-07-23T00:53:14;25.66;58.09
65371;DHT22;58485;59.934;30.352;2022-07-23T00:54:05;25.65;58.10
65371;DHT22;58485;59.934;30.352;2022-07-23T00:54:59;25.67;58.11
65371;DHT22;58485;59.934;30.352;2022-07-23T00:55:51;25.66;58.11
65371;DHT22;58485;59.934;30.352;2022-07-23T00:56:44;25.66;58.14
65371;DHT22;58485;59.934;30.352;2022-07-23T00:57:36;25.64;58.17
65371;DHT22;58485;59.934;30.352;2022-07-23T00:58:30;25.66;58.16
65371;DHT22;58485;59.934;30.352;2022-07-23T00:59:21;25.65;58.18
65371;DHT22;58485;59.934;30.352;2022-07-23T01:00:15;25.63;58.19
65371;DHT22;58485;59.934;30.352;2022-07-23T01:01:06;25.63;58.19
65371;DHT22;58485;59.934;30.352;2022-07-23T01:02:00;25.64;58.19
65371;DHT22;58485;59.934;30.352;2022-07-23T01:02:51;25.64;58.18
65371;DHT22;58485;59.934;30.352;2022-07-23T01:03:43;25.64;58.19
65371;DHT22;58485;59.934;30.352;2022-07-23T01:04:35;25.65;58.19
65371;DHT22;58485;59.934;30.352;2022-07-23T01:05:28;25.62;58.21
65371;DHT22;58485;59.934;30.352;2022-07-23T01:06:19;25.62;58.22
65371;DHT22;58485;59.934;30.352;2022-07-23T01:07:11;25.67;58.09
65371;DHT22;58485;59.934;30.352;2022-07-23T01:08:02;25.72;57.97
65371;DHT22;58485;59.934;30.352;2022-07-23T01:08:55;25.77;57.77
65371;DHT22;58485;59.934;30.352;2022-07-23T01:09:46;25.80;57.64
65371;DHT22;58485;59.934;30.352;2022-07-23T01:10:40;25.86;57.50
65371;DHT22;58485;59.934;30.352;2022-07-23T01:11:32;25.89;57.39
65371;DHT22;58485;59.934;30.352;2022-07-23T01:12:25;25.92;57.24
65371;DHT22;58485;59.934;30.352;2022-07-23T01:13:16;25.95;57.16
65371;DHT22;58485;59.934;30.352;2022-07-23T01:14:10;25.99;57.09
65371;DHT22;58485;59.934;30.352;2022-07-23T01:15:03;26.02;56.97
65371;DHT22;58485;59.934;30.352;2022-07-23T01:15:56;26.04;56.93
65371;DHT22;58485;59.934;30.352;2022-07-23T01:16:48;26.05;56.86
65371;DHT22;58485;59.934;30.352;2022-07-23T01:17:41;26.07;56.77
65371;DHT22;58485;59.934;30.352;2022-07-23T01:18:32;26.09;56.70
65371;DHT22;58485;59.934;30.352;2022-07-23T01:19:24;26.11;56.63
65371;DHT22;58485;59.934;30.352;2022-07-23T01:20:16;26.12;56.60
65371;DHT22;58485;59.934;30.352;2022-07-23T01:21:11;26.15;56.52
65371;DHT22;58485;59.934;30.352;2022-07-23T01:22:03;26.16;56.52
65371;DHT22;58485;59.934;30.352;2022-07-23T01:22:57;26.17;56.45
65371;DHT22;58485;59.934;30.352;2022-07-23T01:23:48;26.17;56.42
65371;DHT22;58485;59.934;30.352;2022-07-23T01:24:41;26.18;56.39
65371;DHT22;58485;59.934;30.352;2022-07-23T01:25:32;26.20;56.36
65371;DHT22;58485;59.934;30.352;2022-07-23T01:26:24;26.20;56.34
65371;DHT22;58485;59.934;30.352;2022-07-23T01:27:15;26.21;56.32
65371;DHT22;58485;59.934;30.352;2022-07-23T01:28:10;26.22;56.30
65371;DHT22;58485;59.934;30.352;2022-07-23T01:29:02;26.21;56.31
65371;DHT22;58485;59.934;30.352;2022-07-23T01:29:55;26.22;56.25
65371;DHT22;58485;59.934;30.352;2022-07-23T01:30:49;26.24;56.21
65371;DHT22;58485;59.934;30.352;2022-07-23T01:31:41;26.24;56.19
65371;DHT22;58485;59.934;30.352;2022-07-23T01:32:33;26.24;56.16
65371;DHT22;58485;59.934;30.352;2022-07-23T01:33:25;26.24;56.16
65371;DHT22;58485;59.934;30.352;2022-07-23T01:34:16;26.26;56.15
65371;DHT22;58485;59.934;30.352;2022-07-23T01:35:09;26.25;56.14
65371;DHT22;58485;59.934;30.352;2022-07-23T01:36:00;26.25;56.12
65371;DHT22;58485;59.934;30.352;2022-07-23T01:36:52;26.26;56.14
65371;DHT22;58485;59.934;30.352;2022-07-23T01:37:44;26.26;56.12
65371;DHT22;58485;59.934;30.352;2022-07-23T01:38:37;26.27;56.05
65371;DHT22;58485;59.934;30.352;2022-07-23T01:39:28;26.27;56.08
65371;DHT22;58485;59.934;30.352;2022-07-23T01:40:21;26.28;56.07
65371;DHT22;58485;59.934;30.352;2022-07-23T01:41:12;26.28;56.05
65371;DHT22;58485;59.934;30.352;2022-07-23T01:42:04;26.27;56.03
65371;DHT22;58485;59.934;30.352;2022-07-23T01:42:56;26.28;56.00
65371;DHT22;58485;59.934;30.352;2022-07-23T01:43:48;26.28;55.99
65371;DHT22;58485;59.934;30.352;2022-07-23T01:44:39;26.30;55.99
65371;DHT22;58485;59.934;30.352;2022-07-23T01:45:32;26.30;55.97
65371;DHT22;58485;59.934;30.352;2022-07-23T01:46:23;26.30;56.00
65371;DHT22;58485;59.934;30.352;2022-07-23T01:47:16;26.31;56.02
65371;DHT22;58485;59.934;30.352;2022-07-23T01:48:07;26.30;56.03
65371;DHT22;58485;59.934;30.352;2022-07-23T01:49:00;26.28;56.02
65371;DHT22;58485;59.934;30.352;2022-07-23T01:49:51;26.30;56.05
65371;DHT22;58485;59.934;30.352;2022-07-23T01:50:43;26.31;56.04
65371;DHT22;58485;59.934;30.352;2022-07-23T01:51:35;26.30;56.03
65371;DHT22;58485;59.934;30.352;2022-07-23T01:52:27;26.31;56.03
65371;DHT22;58485;59.934;30.352;2022-07-23T01:53:18;26.30;56.01
65371;DHT22;58485;59.934;30.352;2022-07-23T01:54:12;26.30;56.00
65371;DHT22;58485;59.934;30.352;2022-07-23T01:55:04;26.31;56.02
65371;DHT22;58485;59.934;30.352;2022-07-23T01:55:57;26.30;56.00
65371;DHT22;58485;59.934;30.352;2022-07-23T01:56:48;26.31;56.00
65371;DHT22;58485;59.934;30.352;2022-07-23T01:57:41;26.30;56.03
65371;DHT22;58485;59.934;30.352;2022-07-23T01:58:32;26.30;56.04
65371;DHT22;58485;59.934;30.352;2022-07-23T01:59:24;26.30;56.04
65371;DHT22;58485;59.934;30.352;2022-07-23T02:00:16;26.28;56.03
65371;DHT22;58485;59.934;30.352;2022-07-23T02:01:08;26.31;55.97
65371;DHT22;58485;59.934;30.352;2022-07-23T02:01:59;26.30;55.97
65371;DHT22;58485;59.934;30.352;2022-07-23T02:02:51;26.30;55.97
65371;DHT22;58485;59.934;30.352;2022-07-23T02:03:43;26.31;55.96
65371;DHT22;58485;59.934;30.352;2022-07-23T02:04:35;26.30;55.97
65371;DHT22;58485;59.934;30.352;2022-07-23T02:05:27;26.30;55.95
65371;DHT22;58485;59.934;30.352;2022-07-23T02:06:20;26.30;55.94
65371;DHT22;58485;59.934;30.352;2022-07-23T02:07:12;26.30;55.97
65371;DHT22;58485;59.934;30.352;2022-07-23T02:08:04;26.30;55.92
65371;DHT22;58485;59.934;30.352;2022-07-23T02:08:55;26.30;55.96
65371;DHT22;58485;59.934;30.352;2022-07-23T02:09:49;26.30;55.97
65371;DHT22;58485;59.934;30.352;2022-07-23T02:10:40;26.28;56.00
65371;DHT22;58485;59.934;30.352;2022-07-23T02:11:33;26.27;55.97
65371;DHT22;58485;59.934;30.352;2022-07-23T02:12:24;26.28;55.95
65371;DHT22;58485;59.934;30.352;2022-07-23T02:13:17;26.28;55.97
65371;DHT22;58485;59.934;30.352;2022-07-23T02:14:09;26.28;56.00
65371;DHT22;58485;59.934;30.352;2022-07-23T02:15:01;26.27;56.02
65371;DHT22;58485;59.934;30.352;2022-07-23T02:15:52;26.28;56.06
65371;DHT22;58485;59.934;30.352;2022-07-23T02:16:44;26.28;56.06
65371;DHT22;58485;59.934;30.352;2022-07-23T02:17:36;26.27;56.06
65371;DHT22;58485;59.934;30.352;2022-07-23T02:18:27;26.27;56.06
65371;DHT22;58485;59.934;30.352;2022-07-23T02:19:20;26.27;56.06
65371;DHT22;58485;59.934;30.352;2022-07-23T02:20:12;26.28;56.05
65371;DHT22;58485;59.934;30.352;2022-07-23T02:21:04;26.26;56.03
65371;DHT22;58485;59.934;30.352;2022-07-23T02:21:56;26.26;56.03
65371;DHT22;58485;59.934;30.352;2022-07-23T02:22:48;26.27;56.03
65371;DHT22;58485;59.934;30.352;2022-07-23T02:23:39;26.27;56.00
65371;DHT22;58485;59.934;30.352;2022-07-23T02:24:32;26.27;56.02
65371;DHT22;58485;59.934;30.352;2022-07-23T02:25:24;26.26;56.01
65371;DHT22;58485;59.934;30.352;2022-07-23T02:26:17;26.27;56.01
65371;DHT22;58485;59.934;30.352;2022-07-23T02:27:08;26.26;56.00
65371;DHT22;58485;59.934;30.352;2022-07-23T02:28:00;26.26;56.03
65371;DHT22;58485;59.934;30.352;2022-07-23T02:28:52;26.25;56.02
65371;DHT22;58485;59.934;30.352;2022-07-23T02:29:44;26.26;56.04
65371;DHT22;58485;59.934;30.352;2022-07-23T02:30:35;26.25;56.03
65371;DHT22;58485;59.934;30.352;2022-07-23T02:31:28;26.24;56.03
65371;DHT22;58485;59.934;30.352;2022-07-23T02:32:19;26.25;56.03
65371;DHT22;58485;59.934;30.352;2022-07-23T02:33:12;26.24;56.06
65371;DHT22;58485;59.934;30.352;2022-07-23T02:34:04;26.24;56.07
65371;DHT22;58485;59.934;30.352;2022-07-23T02:34:56;26.24;56.06
65371;DHT22;58485;59.934;30.352;2022-07-23T02:35:47;26.24;56.08
65371;DHT22;58485;59.934;30.352;2022-07-23T02:36:39;26.24;56.09
65371;DHT22;58485;59.934;30.352;2022-07-23T02:37:31;26.25;56.10
65371;DHT22;58485;59.934;30.352;2022-07-23T02:38:23;26.24;56.11
65371;DHT22;58485;59.934;30.352;2022-07-23T02:39:15;26.23;56.05
65371;DHT22;58485;59.934;30.352;2022-07-23T02:40:07;26.24;56.07
65371;DHT22;58485;59.934;30.352;2022-07-23T02:41:01;26.23;56.05
65371;DHT22;58485;59.934;30.352;2022-07-23T02:41:53;26.24;56.06
65371;DHT22;58485;59.934;30.352;2022-07-23T02:42:44;26.24;56.07
65371;DHT22;58485;59.934;30.352;2022-07-23T02:43:36;26.22;56.14
65371;DHT22;58485;59.934;30.352;2022-07-23T02:44:28;26.23;56.13
65371;DHT22;58485;59.934;30.352;2022-07-23T02:45:20;26.23;56.14
65371;DHT22;58485;59.934;30.352;2022-07-23T02:46:11;26.22;56.15
65371;DHT22;58485;59.934;30.352;2022-07-23T02:47:04;26.23;56.15
65371;DHT22;58485;59.934;30.352;2022-07-23T02:47:55;26.23;56.19
65371;DHT22;58485;59.934;30.352;2022-07-23T02:48:48;26.23;56.16
65371;DHT22;58485;59.934;30.352;2022-07-23T02:49:39;26.24;56.19
65371;DHT22;58485;59.934;30.352;2022-07-23T02:50:31;26.23;56.19
65371;DHT22;58485;59.934;30.352;2022-07-23T02:51:23;26.23;56.18
65371;DHT22;58485;59.934;30.352;2022-07-23T02:52:15;26.22;56.15
65371;DHT22;58485;59.934;30.352;2022-07-23T02:53:06;26.22;56.16
65371;DHT22;58485;59.934;30.352;2022-07-23T02:53:59;26.23;56.19
65371;DHT22;58485;59.934;30.352;2022-07-23T02:54:50;26.24;56.17
65371;DHT22;58485;59.934;30.352;2022-07-23T02:55:42;26.23;56.19
65371;DHT22;58485;59.934;30.352;2022-07-23T02:56:34;26.23;56.16
65371;DHT22;58485;59.934;30.352;2022-07-23T02:57:27;26.23;56.17
65371;DHT22;58485;59.934;30.352;2022-07-23T02:58:18;26.23;56.16
65371;DHT22;58485;59.934;30.352;2022-07-23T02:59:10;26.22;56.14
65371;DHT22;58485;59.934;30.352;2022-07-23T03:00:03;26.23;56.13
65371;DHT22;58485;59.934;30.352;2022-07-23T03:00:56;26.22;56.13
65371;DHT22;58485;59.934;30.352;2022-07-23T03:01:47;26.21;56.12
65371;DHT22;58485;59.934;30.352;2022-07-23T03:02:40;26.21;56.13
65371;DHT22;58485;59.934;30.352;2022-07-23T03:03:31;26.22;56.12
65371;DHT22;58485;59.934;30.352;2022-07-23T03:04:23;26.21;56.13
65371;DHT22;58485;59.934;30.352;2022-07-23T03:05:14;26.21;56.19
65371;DHT22;58485;59.934;30.352;2022-07-23T03:06:07;26.20;56.17
65371;DHT22;58485;59.934;30.352;2022-07-23T03:06:58;26.21;56.14
65371;DHT22;58485;59.934;30.352;2022-07-23T03:07:50;26.21;56.13
65371;DHT22;58485;59.934;30.352;2022-07-23T03:08:42;26.21;56.17
65371;DHT22;58485;59.934;30.352;2022-07-23T03:09:35;26.20;56.19
65371;DHT22;58485;59.934;30.352;2022-07-23T03:10:26;26.22;56.16
65371;DHT22;58485;59.934;30.352;2022-07-23T03:11:18;26.20;56.16
65371;DHT22;58485;59.934;30.352;2022-07-23T03:12:11;26.19;56.22
65371;DHT22;58485;59.934;30.352;2022-07-23T03:13:03;26.20;56.19
65371;DHT22;58485;59.934;30.352;2022-07-23T03:13:54;26.20;56.23
65371;DHT22;58485;59.934;30.352;2022-07-23T03:14:46;26.20;56.22
65371;DHT22;58485;59.934;30.352;2022-07-23T03:15:38;26.18;56.23
65371;DHT22;58485;59.934;30.352;2022-07-23T03:16:30;26.19;56.23
65371;DHT22;58485;59.934;30.352;2022-07-23T03:17:21;26.20;56.21
65371;DHT22;58485;59.934;30.352;2022-07-23T03:18:13;26.19;56.21
65371;DHT22;58485;59.934;30.352;2022-07-23T03:19:05;26.20;56.24
65371;DHT22;58485;59.934;30.352;2022-07-23T03:19:57;26.20;56.24
65371;DHT22;58485;59.934;30.352;2022-07-23T03:20:48;26.19;56.24
65371;DHT22;58485;59.934;30.352;2022-07-23T03:21:40;26.19;56.27
65371;DHT22;58485;59.934;30.352;2022-07-23T03:22:31;26.20;56.24
65371;DHT22;58485;59.934;30.352;2022-07-23T03:23:24;26.19;56.26
65371;DHT22;58485;59.934;30.352;2022-07-23T03:24:15;26.19;56.23
65371;DHT22;58485;59.934;30.352;2022-07-23T03:25:09;26.17;56.23
65371;DHT22;58485;59.934;30.352;2022-07-23T03:26:00;26.18;56.24
65371;DHT22;58485;59.934;30.352;2022-07-23T03:26:51;26.17;56.27
65371;DHT22;58485;59.934;30.352;2022-07-23T03:27:45;26.17;56.27
65371;DHT22;58485;59.934;30.352;2022-07-23T03:28:36;26.17;56.30
65371;DHT22;58485;59.934;30.352;2022-07-23T03:29:28;26.18;56.29
65371;DHT22;58485;59.934;30.352;2022-07-23T03:30:20;26.17;56.28
65371;DHT22;58485;59.934;30.352;2022-07-23T03:31:12;26.17;56.26
65371;DHT22;58485;59.934;30.352;2022-07-23T03:32:04;26.17;56.27
65371;DHT22;58485;59.934;30.352;2022-07-23T03:32:56;26.16;56.24
65371;DHT22;58485;59.934;30.352;2022-07-23T03:33:48;26.17;56.25
65371;DHT22;58485;59.934;30.352;2022-07-23T03:34:40;26.16;56.23
65371;DHT22;58485;59.934;30.352;2022-07-23T03:35:31;26.17;56.25
65371;DHT22;58485;59.934;30.352;2022-07-23T03:36:23;26.16;56.29
65371;DHT22;58485;59.934;30.352;2022-07-23T03:37:16;26.16;56.27
65371;DHT22;58485;59.934;30.352;2022-07-23T03:38:08;26.15;56.30
65371;DHT22;58485;59.934;30.352;2022-07-23T03:39:00;26.16;56.32
65371;DHT22;58485;59.934;30.352;2022-07-23T03:39:51;26.15;56.32
65371;DHT22;58485;59.934;30.352;2022-07-23T03:40:43;26.16;56.32
65371;DHT22;58485;59.934;30.352;2022-07-23T03:41:35;26.15;56.30
65371;DHT22;58485;59.934;30.352;2022-07-23T03:42:27;26.16;56.34
65371;DHT22;58485;59.934;30.352;2022-07-23T03:43:19;26.15;56.33
65371;DHT22;58485;59.934;30.352;2022-07-23T03:44:12;26.13;56.34
65371;DHT22;58485;59.934;30.352;2022-07-23T03:45:04;26.12;56.34
65371;DHT22;58485;59.934;30.352;2022-07-23T03:45:57;26.13;56.39
65371;DHT22;58485;59.934;30.352;2022-07-23T03:46:48;26.11;56.36
65371;DHT22;58485;59.934;30.352;2022-07-23T03:47:41;26.15;56.35
65371;DHT22;58485;59.934;30.352;2022-07-23T03:48:33;26.15;56.39
65371;DHT22;58485;59.934;30.352;2022-07-23T03:49:26;26.13;56.42
65371;DHT22;58485;59.934;30.352;2022-07-23T03:50:17;26.13;56.43
65371;DHT22;58485;59.934;30.352;2022-07-23T03:51:09;26.15;56.40
65371;DHT22;58485;59.934;30.352;2022-07-23T03:52:01;26.13;56.42
65371;DHT22;58485;59.934;30.352;2022-07-23T03:52:53;26.13;56.42
65371;DHT22;58485;59.934;30.352;2022-07-23T03:53:45;26.13;56.40
65371;DHT22;58485;59.934;30.352;2022-07-23T03:54:39;26.13;56.41
65371;DHT22;58485;59.934;30.352;2022-07-23T03:55:30;26.13;56.40
65371;DHT22;58485;59.934;30.352;2022-07-23T03:56:23;26.13;56.40
65371;DHT22;58485;59.934;30.352;2022-07-23T03:57:14;26.13;56.40
65371;DHT22;58485;59.934;30.352;2022-07-23T03:58:06;26.13;56.40
65371;DHT22;58485;59.934;30.352;2022-07-23T03:58:59;26.12;56.36
65371;DHT22;58485;59.934;30.352;2022-07-23T03:59:51;26.12;56.38
65371;DHT22;58485;59.934;30.352;2022-07-23T04:00:42;26.12;56.38
65371;DHT22;58485;59.934;30.352;2022-07-23T04:01:35;26.13;56.37
65371;DHT22;58485;59.934;30.352;2022-07-23T04:02:26;26.12;56.40
65371;DHT22;58485;59.934;30.352;2022-07-23T04:03:18;26.12;56.40
65371;DHT22;58485;59.934;30.352;2022-07-23T04:04:10;26.11;56.36
65371;DHT22;58485;59.934;30.352;2022-07-23T04:05:02;26.12;56.38
65371;DHT22;58485;59.934;30.352;2022-07-23T04:05:53;26.12;56.41
65371;DHT22;58485;59.934;30.352;2022-07-23T04:06:46;26.12;56.39
65371;DHT22;58485;59.934;30.352;2022-07-23T04:07:37;26.12;56.42
65371;DHT22;58485;59.934;30.352;2022-07-23T04:08:30;26.12;56.40
65371;DHT22;58485;59.934;30.352;2022-07-23T04:09:21;26.11;56.39
65371;DHT22;58485;59.934;30.352;2022-07-23T04:10:14;26.11;56.36
65371;DHT22;58485;59.934;30.352;2022-07-23T04:11:05;26.11;56.39
65371;DHT22;58485;59.934;30.352;2022-07-23T04:11:57;26.12;56.39
65371;DHT22;58485;59.934;30.352;2022-07-23T04:12:48;26.11;56.35
65371;DHT22;58485;59.934;30.352;2022-07-23T04:13:41;26.12;56.36
65371;DHT22;58485;59.934;30.352;2022-07-23T04:14:34;26.10;56.32
65371;DHT22;58485;59.934;30.352;2022-07-23T04:15:26;26.11;56.40
65371;DHT22;58485;59.934;30.352;2022-07-23T04:16:18;26.11;56.43
65371;DHT22;58485;59.934;30.352;2022-07-23T04:17:10;26.10;56.45
65371;DHT22;58485;59.934;30.352;2022-07-23T04:18:01;26.11;56.45
65371;DHT22;58485;59.934;30.352;2022-07-23T04:18:54;26.10;56.47
65371;DHT22;58485;59.934;30.352;2022-07-23T04:19:45;26.11;56.45
65371;DHT22;58485;59.934;30.352;2022-07-23T04:20:37;26.11;56.45
65371;DHT22;58485;59.934;30.352;2022-07-23T04:21:28;26.10;56.42
65371;DHT22;58485;59.934;30.352;2022-07-23T04:22:21;26.11;56.41
65371;DHT22;58485;59.934;30.352;2022-07-23T04:23:12;26.10;56.41
65371;DHT22;58485;59.934;30.352;2022-07-23T04:24:04;26.10;56.39
65371;DHT22;58485;59.934;30.352;2022-07-23T04:24:56;26.10;56.39
65371;DHT22;58485;59.934;30.352;2022-07-23T04:25:48;26.11;56.38
65371;DHT22;58485;59.934;30.352;2022-07-23T04:26:39;26.09;56.36
65371;DHT22;58485;59.934;30.352;2022-07-23T04:27:32;26.10;56.39
65371;DHT22;58485;59.934;30.352;2022-07-23T04:28:24;26.10;56.42
65371;DHT22;58485;59.934;30.352;2022-07-23T04:29:16;26.09;56.45
65371;DHT22;58485;59.934;30.352;2022-07-23T04:30:09;26.10;56.43
65371;DHT22;58485;59.934;30.352;2022-07-23T04:31:02;26.09;56.41
65371;DHT22;58485;59.934;30.352;2022-07-23T04:31:53;26.09;56.41
65371;DHT22;58485;59.934;30.352;2022-07-23T04:32:45;26.09;56.43
65371;DHT22;58485;59.934;30.352;2022-07-23T04:33:37;26.10;56.44
65371;DHT22;58485;59.934;30.352;2022-07-23T04:34:29;26.09;56.42
65371;DHT22;58485;59.934;30.352;2022-07-23T04:35:20;26.09;56.42
65371;DHT22;58485;59.934;30.352;2022-07-23T04:36:13;26.07;56.42
65371;DHT22;58485;59.934;30.352;2022-07-23T04:37:04;26.08;56.42
65371;DHT22;58485;59.934;30.352;2022-07-23T04:37:56;26.07;56.46
65371;DHT22;58485;59.934;30.352;2022-07-23T04:38:47;26.08;56.47
65371;DHT22;58485;59.934;30.352;2022-07-23T04:39:39;26.07;56.45
65371;DHT22;58485;59.934;30.352;2022-07-23T04:40:31;26.08;56.47
65371;DHT22;58485;59.934;30.352;2022-07-23T04:41:23;26.06;56.43
65371;DHT22;58485;59.934;30.352;2022-07-23T04:42:14;26.08;56.43
65371;DHT22;58485;59.934;30.352;2022-07-23T04:43:06;26.07;56.45
65371;DHT22;58485;59.934;30.352;2022-07-23T04:43:58;26.06;56.43
65371;DHT22;58485;59.934;30.352;2022-07-23T04:44:50;26.06;56.45
65371;DHT22;58485;59.934;30.352;2022-07-23T04:45:42;26.07;56.45
65371;DHT22;58485;59.934;30.352;2022-07-23T04:46:35;26.08;56.48
65371;DHT22;58485;59.934;30.352;2022-07-23T04:47:26;26.07;56.52
65371;DHT22;58485;59.934;30.352;2022-07-23T04:48:18;26.06;56.53
65371;DHT22;58485;59.934;30.352;2022-07-23T04:49:09;26.07;56.53
65371;DHT22;58485;59.934;30.352;2022-07-23T04:50:02;26.07;56.54
65371;DHT22;58485;59.934;30.352;2022-07-23T04:50:54;26.07;56.56
65371;DHT22;58485;59.934;30.352;2022-07-23T04:51:46;26.06;56.58
65371;DHT22;58485;59.934;30.352;2022-07-23T04:52:37;26.08;56.59
65371;DHT22;58485;59.934;30.352;2022-07-23T04:53:29;26.07;56.59
65371;DHT22;58485;59.934;30.352;2022-07-23T04:54:21;26.07;56.59
65371;DHT22;58485;59.934;30.352;2022-07-23T04:55:13;26.06;56.59
65371;DHT22;58485;59.934;30.352;2022-07-23T04:56:04;26.06;56.59
65371;DHT22;58485;59.934;30.352;2022-07-23T04:56:57;26.05;56.58
65371;DHT22;58485;59.934;30.352;2022-07-23T04:57:48;26.05;56.58
65371;DHT22;58485;59.934;30.352;2022-07-23T04:58:40;26.06;56.56
65371;DHT22;58485;59.934;30.352;2022-07-23T04:59:31;26.06;56.57
65371;DHT22;58485;59.934;30.352;2022-07-23T05:00:24;26.06;56.55
65371;DHT22;58485;59.934;30.352;2022-07-23T05:01:16;26.06;56.55
65371;DHT22;58485;59.934;30.352;2022-07-23T05:02:08;26.04;56.56
65371;DHT22;58485;59.934;30.352;2022-07-23T05:03:00;26.06;56.58
65371;DHT22;58485;59.934;30.352;2022-07-23T05:03:53;26.07;56.58
65371;DHT22;58485;59.934;30.352;2022-07-23T05:04:44;26.06;56.61
65371;DHT22;58485;59.934;30.352;2022-07-23T05:05:36;26.07;56.61
65371;DHT22;58485;59.934;30.352;2022-07-23T05:06:28;26.06;56.60
65371;DHT22;58485;59.934;30.352;2022-07-23T05:07:20;26.06;56.60
65371;DHT22;58485;59.934;30.352;2022-07-23T05:08:11;26.06;56.56
65371;DHT22;58485;59.934;30.352;2022-07-23T05:09:04;26.05;56.53
65371;DHT22;58485;59.934;30.352;2022-07-23T05:09:55;26.05;56.54
65371;DHT22;58485;59.934;30.352;2022-07-23T05:10:47;26.04;56.57
65371;DHT22;58485;59.934;30.352;2022-07-23T05:11:38;26.05;56.55
65371;DHT22;58485;59.934;30.352;2022-07-23T05:12:30;26.05;56.56
65371;DHT22;58485;59.934;30.352;2022-07-23T05:13:23;26.05;56.55
65371;DHT22;58485;59.934;30.352;2022-07-23T05:14:15;26.05;56.56
65371;DHT22;58485;59.934;30.352;2022-07-23T05:15:07;26.04;56.55
65371;DHT22;58485;59.934;30.352;2022-07-23T05:15:59;26.05;56.57
65371;DHT22;58485;59.934;30.352;2022-07-23T05:16:52;26.04;56.57
65371;DHT22;58485;59.934;30.352;2022-07-23T05:17:44;26.04;56.58
65371;DHT22;58485;59.934;30.352;2022-07-23T05:18:35;26.05;56.58
65371;DHT22;58485;59.934;30.352;2022-07-23T05:19:28;26.04;56.60
65371;DHT22;58485;59.934;30.352;2022-07-23T05:20:19;26.04;56.64
65371;DHT22;58485;59.934;30.352;2022-07-23T05:21:12;26.04;56.67
65371;DHT22;58485;59.934;30.352;2022-07-23T05:22:03;26.03;56.67
65371;DHT22;58485;59.934;30.352;2022-07-23T05:22:55;26.04;56.67